sensor_id;sensor_type;location;lat;lon;timestamp;P1;durP1;ratioP1;P2;durP2;ratioP2
22334;SDS011;11335;43.848;25.958;2023-10-13T00:02:38;5.68;;;3.28;;
22334;SDS011;11335;43.848;25.958;2023-10-13T00:05:25;7.38;;;3.95;;
22334;SDS011;11335;43.848;25.958;2023-10-13T00:08:11;6.22;;;3.42;;
22334;SDS011;11335;43.848;25.958;2023-10-13T00:10:57;7.90;;;3.60;;
22334;SDS011;11335;43.848;25.958;2023-10-13T00:13:45;5.93;;;3.55;;
22334;SDS011;11335;43.848;25.958;2023-10-13T00:16:37;9.35;;;3.78;;
22334;SDS011;11335;43.848;25.958;2023-10-13T00:19:25;8.70;;;4.18;;
22334;SDS011;11335;43.848;25.958;2023-10-13T00:22:11;6.80;;;3.63;;
22334;SDS011;11335;43.848;25.958;2023-10-13T00:24:57;8.07;;;3.90;;
22334;SDS011;11335;43.848;25.958;2023-10-13T00:27:48;8.32;;;3.40;;
22334;SDS011;11335;43.848;25.958;2023-10-13T00:30:37;10.93;;;3.70;;
22334;SDS011;11335;43.848;25.958;2023-10-13T00:33:23;8.13;;;3.60;;
22334;SDS011;11335;43.848;25.958;2023-10-13T00:36:08;10.95;;;3.67;;
22334;SDS011;11335;43.848;25.958;2023-10-13T00:39:02;10.30;;;3.85;;
22334;SDS011;11335;43.848;25.958;2023-10-13T00:41:51;6.82;;;3.70;;
22334;SDS011;11335;43.848;25.958;2023-10-13T00:44:37;7.95;;;3.63;;
22334;SDS011;11335;43.848;25.958;2023-10-13T00:47:27;6.35;;;3.50;;
22334;SDS011;11335;43.848;25.958;2023-10-13T00:50:21;8.82;;;3.42;;
22334;SDS011;11335;43.848;25.958;2023-10-13T00:53:09;7.32;;;3.47;;
22334;SDS011;11335;43.848;25.958;2023-10-13T00:55:54;6.18;;;3.22;;
22334;SDS011;11335;43.848;25.958;2023-10-13T00:58:43;5.75;;;3.15;;
22334;SDS011;11335;43.848;25.958;2023-10-13T01:01:29;7.68;;;3.50;;
22334;SDS011;11335;43.848;25.958;2023-10-13T01:04:18;5.25;;;3.15;;
22334;SDS011;11335;43.848;25.958;2023-10-13T01:07:04;5.72;;;3.30;;
22334;SDS011;11335;43.848;25.958;2023-10-13T01:09:53;6.45;;;3.60;;
22334;SDS011;11335;43.848;25.958;2023-10-13T01:12:40;5.22;;;3.10;;
22334;SDS011;11335;43.848;25.958;2023-10-13T01:15:27;7.22;;;3.00;;
22334;SDS011;11335;43.848;25.958;2023-10-13T01:18:15;6.72;;;3.10;;
22334;SDS011;11335;43.848;25.958;2023-10-13T01:21:04;7.72;;;3.78;;
22334;SDS011;11335;43.848;25.958;2023-10-13T01:23:49;6.68;;;3.30;;
22334;SDS011;11335;43.848;25.958;2023-10-13T01:26:36;4.53;;;3.42;;
22334;SDS011;11335;43.848;25.958;2023-10-13T01:29:25;11.45;;;3.70;;
22334;SDS011;11335;43.848;25.958;2023-10-13T01:32:22;6.07;;;3.35;;
22334;SDS011;11335;43.848;25.958;2023-10-13T01:35:08;8.48;;;3.40;;
22334;SDS011;11335;43.848;25.958;2023-10-13T01:37:54;6.55;;;3.33;;
22334;SDS011;11335;43.848;25.958;2023-10-13T01:40:39;6.57;;;3.58;;
22334;SDS011;11335;43.848;25.958;2023-10-13T01:43:25;8.50;;;4.13;;
22334;SDS011;11335;43.848;25.958;2023-10-13T01:46:11;6.90;;;4.03;;
22334;SDS011;11335;43.848;25.958;2023-10-13T01:48:58;7.40;;;4.30;;
22334;SDS011;11335;43.848;25.958;2023-10-13T01:51:44;5.43;;;3.78;;
22334;SDS011;11335;43.848;25.958;2023-10-13T01:54:32;9.10;;;4.00;;
22334;SDS011;11335;43.848;25.958;2023-10-13T01:57:18;5.70;;;3.30;;
22334;SDS011;11335;43.848;25.958;2023-10-13T02:00:04;7.60;;;3.40;;
22334;SDS011;11335;43.848;25.958;2023-10-13T02:02:56;5.43;;;3.20;;
22334;SDS011;11335;43.848;25.958;2023-10-13T02:05:46;5.57;;;3.63;;
22334;SDS011;11335;43.848;25.958;2023-10-13T02:08:35;7.90;;;3.20;;
22334;SDS011;11335;43.848;25.958;2023-10-13T02:11:25;4.20;;;2.92;;
22334;SDS011;11335;43.848;25.958;2023-10-13T02:14:11;7.60;;;3.30;;
22334;SDS011;11335;43.848;25.958;2023-10-13T02:16:56;8.05;;;3.33;;
22334;SDS011;11335;43.848;25.958;2023-10-13T02:19:57;6.15;;;3.30;;
22334;SDS011;11335;43.848;25.958;2023-10-13T02:22:43;5.82;;;3.22;;
22334;SDS011;11335;43.848;25.958;2023-10-13T02:25:34;6.57;;;3.80;;
22334;SDS011;11335;43.848;25.958;2023-10-13T02:28:20;6.38;;;3.60;;
22334;SDS011;11335;43.848;25.958;2023-10-13T02:31:13;7.25;;;3.33;;
22334;SDS011;11335;43.848;25.958;2023-10-13T02:33:59;7.13;;;2.97;;
22334;SDS011;11335;43.848;25.958;2023-10-13T02:36:46;7.45;;;3.70;;
22334;SDS011;11335;43.848;25.958;2023-10-13T02:39:34;5.82;;;3.20;;
22334;SDS011;11335;43.848;25.958;2023-10-13T02:42:21;6.18;;;2.83;;
22334;SDS011;11335;43.848;25.958;2023-10-13T02:45:10;5.20;;;3.53;;
22334;SDS011;11335;43.848;25.958;2023-10-13T02:47:57;4.68;;;2.90;;
22334;SDS011;11335;43.848;25.958;2023-10-13T02:51:02;8.60;;;3.40;;
22334;SDS011;11335;43.848;25.958;2023-10-13T02:53:51;5.60;;;3.28;;
22334;SDS011;11335;43.848;25.958;2023-10-13T02:56:38;6.05;;;3.65;;
22334;SDS011;11335;43.848;25.958;2023-10-13T02:59:34;6.55;;;3.45;;
22334;SDS011;11335;43.848;25.958;2023-10-13T03:02:19;6.45;;;3.53;;
22334;SDS011;11335;43.848;25.958;2023-10-13T03:05:13;6.30;;;3.25;;
22334;SDS011;11335;43.848;25.958;2023-10-13T03:07:59;4.30;;;3.17;;
22334;SDS011;11335;43.848;25.958;2023-10-13T03:10:49;5.10;;;3.05;;
22334;SDS011;11335;43.848;25.958;2023-10-13T03:13:39;8.25;;;3.38;;
22334;SDS011;11335;43.848;25.958;2023-10-13T03:16:29;6.45;;;3.70;;
22334;SDS011;11335;43.848;25.958;2023-10-13T03:19:15;7.25;;;3.92;;
22334;SDS011;11335;43.848;25.958;2023-10-13T03:22:04;6.60;;;3.75;;
22334;SDS011;11335;43.848;25.958;2023-10-13T03:24:57;5.38;;;3.40;;
22334;SDS011;11335;43.848;25.958;2023-10-13T03:27:50;11.55;;;3.70;;
22334;SDS011;11335;43.848;25.958;2023-10-13T03:30:36;7.25;;;3.58;;
22334;SDS011;11335;43.848;25.958;2023-10-13T03:33:27;6.88;;;4.38;;
22334;SDS011;11335;43.848;25.958;2023-10-13T03:36:13;6.43;;;4.07;;
22334;SDS011;11335;43.848;25.958;2023-10-13T03:39:18;8.82;;;3.80;;
22334;SDS011;11335;43.848;25.958;2023-10-13T03:42:04;5.43;;;3.65;;
22334;SDS011;11335;43.848;25.958;2023-10-13T03:44:51;14.60;;;4.15;;
22334;SDS011;11335;43.848;25.958;2023-10-13T03:47:40;7.25;;;3.50;;
22334;SDS011;11335;43.848;25.958;2023-10-13T03:50:27;7.32;;;3.72;;
22334;SDS011;11335;43.848;25.958;2023-10-13T03:53:17;4.60;;;3.67;;
22334;SDS011;11335;43.848;25.958;2023-10-13T03:56:05;7.97;;;3.53;;
22334;SDS011;11335;43.848;25.958;2023-10-13T03:58:54;6.43;;;3.30;;
22334;SDS011;11335;43.848;25.958;2023-10-13T04:01:47;5.50;;;3.50;;
22334;SDS011;11335;43.848;25.958;2023-10-13T04:04:43;10.20;;;3.85;;
22334;SDS011;11335;43.848;25.958;2023-10-13T04:07:34;12.02;;;4.43;;
22334;SDS011;11335;43.848;25.958;2023-10-13T04:10:20;11.80;;;3.60;;
22334;SDS011;11335;43.848;25.958;2023-10-13T04:13:24;6.75;;;3.63;;
22334;SDS011;11335;43.848;25.958;2023-10-13T04:16:25;9.38;;;3.97;;
22334;SDS011;11335;43.848;25.958;2023-10-13T04:19:13;6.50;;;3.83;;
22334;SDS011;11335;43.848;25.958;2023-10-13T04:22:07;7.18;;;3.78;;
22334;SDS011;11335;43.848;25.958;2023-10-13T04:25:06;8.35;;;4.03;;
22334;SDS011;11335;43.848;25.958;2023-10-13T04:28:12;8.20;;;3.97;;
22334;SDS011;11335;43.848;25.958;2023-10-13T04:30:58;8.77;;;4.43;;
22334;SDS011;11335;43.848;25.958;2023-10-13T04:33:43;8.38;;;4.00;;
22334;SDS011;11335;43.848;25.958;2023-10-13T04:36:36;9.65;;;4.25;;
22334;SDS011;11335;43.848;25.958;2023-10-13T04:39:30;9.77;;;4.22;;
22334;SDS011;11335;43.848;25.958;2023-10-13T04:42:20;5.95;;;3.72;;
22334;SDS011;11335;43.848;25.958;2023-10-13T04:45:24;9.38;;;3.83;;
22334;SDS011;11335;43.848;25.958;2023-10-13T04:48:16;12.13;;;4.10;;
22334;SDS011;11335;43.848;25.958;2023-10-13T04:51:07;12.75;;;4.20;;
22334;SDS011;11335;43.848;25.958;2023-10-13T04:54:31;10.82;;;4.28;;
22334;SDS011;11335;43.848;25.958;2023-10-13T04:57:30;10.27;;;4.47;;
22334;SDS011;11335;43.848;25.958;2023-10-13T05:00:22;16.60;;;4.65;;
22334;SDS011;11335;43.848;25.958;2023-10-13T05:03:07;21.75;;;5.35;;
22334;SDS011;11335;43.848;25.958;2023-10-13T05:06:11;12.25;;;4.68;;
22334;SDS011;11335;43.848;25.958;2023-10-13T05:09:17;26.70;;;5.03;;
22334;SDS011;11335;43.848;25.958;2023-10-13T05:12:21;13.05;;;4.70;;
22334;SDS011;11335;43.848;25.958;2023-10-13T05:15:25;13.10;;;5.90;;
22334;SDS011;11335;43.848;25.958;2023-10-13T05:18:29;10.32;;;5.20;;
22334;SDS011;11335;43.848;25.958;2023-10-13T05:21:34;32.70;;;7.57;;
22334;SDS011;11335;43.848;25.958;2023-10-13T05:24:38;13.15;;;4.38;;
22334;SDS011;11335;43.848;25.958;2023-10-13T05:27:42;14.65;;;4.50;;
22334;SDS011;11335;43.848;25.958;2023-10-13T05:30:54;9.27;;;4.55;;
22334;SDS011;11335;43.848;25.958;2023-10-13T05:33:58;8.30;;;4.05;;
22334;SDS011;11335;43.848;25.958;2023-10-13T05:37:02;8.60;;;4.82;;
22334;SDS011;11335;43.848;25.958;2023-10-13T05:40:06;12.23;;;4.38;;
22334;SDS011;11335;43.848;25.958;2023-10-13T05:43:10;7.75;;;4.57;;
22334;SDS011;11335;43.848;25.958;2023-10-13T05:46:15;13.00;;;4.18;;
22334;SDS011;11335;43.848;25.958;2023-10-13T05:49:12;10.55;;;4.68;;
22334;SDS011;11335;43.848;25.958;2023-10-13T05:52:24;15.18;;;4.90;;
22334;SDS011;11335;43.848;25.958;2023-10-13T05:55:28;9.32;;;4.78;;
22334;SDS011;11335;43.848;25.958;2023-10-13T05:58:32;12.23;;;4.45;;
22334;SDS011;11335;43.848;25.958;2023-10-13T06:01:50;11.73;;;4.68;;
22334;SDS011;11335;43.848;25.958;2023-10-13T06:04:55;22.65;;;4.57;;
22334;SDS011;11335;43.848;25.958;2023-10-13T06:08:00;14.68;;;4.93;;
22334;SDS011;11335;43.848;25.958;2023-10-13T06:11:04;10.48;;;4.40;;
22334;SDS011;11335;43.848;25.958;2023-10-13T06:14:08;14.45;;;4.50;;
22334;SDS011;11335;43.848;25.958;2023-10-13T06:17:12;9.80;;;4.10;;
22334;SDS011;11335;43.848;25.958;2023-10-13T06:20:16;10.52;;;4.30;;
22334;SDS011;11335;43.848;25.958;2023-10-13T06:23:22;9.20;;;4.88;;
22334;SDS011;11335;43.848;25.958;2023-10-13T06:26:26;15.95;;;4.82;;
22334;SDS011;11335;43.848;25.958;2023-10-13T06:29:31;23.52;;;6.72;;
22334;SDS011;11335;43.848;25.958;2023-10-13T06:32:16;10.75;;;4.70;;
22334;SDS011;11335;43.848;25.958;2023-10-13T06:35:02;13.85;;;5.20;;
22334;SDS011;11335;43.848;25.958;2023-10-13T06:37:52;10.15;;;4.90;;
22334;SDS011;11335;43.848;25.958;2023-10-13T06:40:38;10.45;;;4.30;;
22334;SDS011;11335;43.848;25.958;2023-10-13T06:43:27;13.93;;;5.40;;
22334;SDS011;11335;43.848;25.958;2023-10-13T06:46:17;12.25;;;5.00;;
22334;SDS011;11335;43.848;25.958;2023-10-13T06:49:08;16.95;;;5.35;;
22334;SDS011;11335;43.848;25.958;2023-10-13T06:51:55;11.82;;;4.80;;
22334;SDS011;11335;43.848;25.958;2023-10-13T06:54:45;18.63;;;6.15;;
22334;SDS011;11335;43.848;25.958;2023-10-13T06:57:31;17.42;;;5.47;;
22334;SDS011;11335;43.848;25.958;2023-10-13T07:00:18;43.28;;;11.13;;
22334;SDS011;11335;43.848;25.958;2023-10-13T07:03:33;15.02;;;6.18;;
22334;SDS011;11335;43.848;25.958;2023-10-13T07:06:22;19.70;;;6.00;;
22334;SDS011;11335;43.848;25.958;2023-10-13T07:09:08;15.57;;;6.30;;
22334;SDS011;11335;43.848;25.958;2023-10-13T07:12:01;13.57;;;5.38;;
22334;SDS011;11335;43.848;25.958;2023-10-13T07:14:48;13.38;;;4.85;;
22334;SDS011;11335;43.848;25.958;2023-10-13T07:17:56;12.70;;;4.50;;
22334;SDS011;11335;43.848;25.958;2023-10-13T07:20:44;16.92;;;4.70;;
22334;SDS011;11335;43.848;25.958;2023-10-13T07:23:30;7.68;;;3.85;;
22334;SDS011;11335;43.848;25.958;2023-10-13T07:26:16;8.25;;;3.70;;
22334;SDS011;11335;43.848;25.958;2023-10-13T07:29:02;9.40;;;4.78;;
22334;SDS011;11335;43.848;25.958;2023-10-13T07:31:47;8.73;;;4.00;;
22334;SDS011;11335;43.848;25.958;2023-10-13T07:34:33;9.95;;;4.18;;
22334;SDS011;11335;43.848;25.958;2023-10-13T07:37:24;8.50;;;4.18;;
22334;SDS011;11335;43.848;25.958;2023-10-13T07:40:14;10.00;;;3.85;;
22334;SDS011;11335;43.848;25.958;2023-10-13T07:43:11;9.63;;;3.92;;
22334;SDS011;11335;43.848;25.958;2023-10-13T07:45:58;10.98;;;4.47;;
22334;SDS011;11335;43.848;25.958;2023-10-13T07:48:45;9.45;;;4.18;;
22334;SDS011;11335;43.848;25.958;2023-10-13T07:51:31;8.30;;;4.63;;
22334;SDS011;11335;43.848;25.958;2023-10-13T07:54:18;12.27;;;5.60;;
22334;SDS011;11335;43.848;25.958;2023-10-13T07:57:07;13.07;;;5.30;;
22334;SDS011;11335;43.848;25.958;2023-10-13T07:59:53;12.95;;;5.30;;
22334;SDS011;11335;43.848;25.958;2023-10-13T08:02:58;11.07;;;5.57;;
22334;SDS011;11335;43.848;25.958;2023-10-13T08:05:54;8.38;;;5.13;;
22334;SDS011;11335;43.848;25.958;2023-10-13T08:09:04;8.55;;;5.72;;
22334;SDS011;11335;43.848;25.958;2023-10-13T08:12:15;8.13;;;5.95;;
22334;SDS011;11335;43.848;25.958;2023-10-13T08:15:06;12.95;;;6.50;;
22334;SDS011;11335;43.848;25.958;2023-10-13T08:18:06;8.45;;;5.45;;
22334;SDS011;11335;43.848;25.958;2023-10-13T08:21:02;23.95;;;7.60;;
22334;SDS011;11335;43.848;25.958;2023-10-13T08:23:49;13.07;;;6.43;;
22334;SDS011;11335;43.848;25.958;2023-10-13T08:26:40;11.13;;;6.53;;
22334;SDS011;11335;43.848;25.958;2023-10-13T08:29:45;13.63;;;6.25;;
22334;SDS011;11335;43.848;25.958;2023-10-13T08:32:40;11.82;;;6.57;;
22334;SDS011;11335;43.848;25.958;2023-10-13T08:35:44;16.05;;;6.95;;
22334;SDS011;11335;43.848;25.958;2023-10-13T08:38:50;15.73;;;6.85;;
22334;SDS011;11335;43.848;25.958;2023-10-13T08:41:40;13.23;;;6.75;;
22334;SDS011;11335;43.848;25.958;2023-10-13T08:44:43;13.77;;;7.00;;
22334;SDS011;11335;43.848;25.958;2023-10-13T08:47:30;13.43;;;6.55;;
22334;SDS011;11335;43.848;25.958;2023-10-13T08:50:22;11.85;;;6.50;;
22334;SDS011;11335;43.848;25.958;2023-10-13T08:53:26;14.77;;;6.97;;
22334;SDS011;11335;43.848;25.958;2023-10-13T08:56:19;15.70;;;8.50;;
22334;SDS011;11335;43.848;25.958;2023-10-13T08:59:20;13.70;;;6.70;;
22334;SDS011;11335;43.848;25.958;2023-10-13T09:02:24;11.23;;;6.15;;
22334;SDS011;11335;43.848;25.958;2023-10-13T09:05:28;13.77;;;6.28;;
22334;SDS011;11335;43.848;25.958;2023-10-13T09:08:46;18.52;;;7.18;;
22334;SDS011;11335;43.848;25.958;2023-10-13T09:11:50;9.50;;;6.63;;
22334;SDS011;11335;43.848;25.958;2023-10-13T09:14:40;14.00;;;6.78;;
22334;SDS011;11335;43.848;25.958;2023-10-13T09:17:29;12.15;;;6.05;;
22334;SDS011;11335;43.848;25.958;2023-10-13T09:20:27;14.18;;;6.50;;
22334;SDS011;11335;43.848;25.958;2023-10-13T09:23:25;13.23;;;6.53;;
22334;SDS011;11335;43.848;25.958;2023-10-13T09:26:11;12.30;;;6.35;;
22334;SDS011;11335;43.848;25.958;2023-10-13T09:28:57;10.98;;;6.50;;
22334;SDS011;11335;43.848;25.958;2023-10-13T09:31:43;11.48;;;6.97;;
22334;SDS011;11335;43.848;25.958;2023-10-13T09:34:30;31.95;;;8.93;;
22334;SDS011;11335;43.848;25.958;2023-10-13T09:37:19;12.85;;;7.05;;
22334;SDS011;11335;43.848;25.958;2023-10-13T09:40:08;13.43;;;7.50;;
22334;SDS011;11335;43.848;25.958;2023-10-13T09:43:10;14.82;;;7.00;;
22334;SDS011;11335;43.848;25.958;2023-10-13T09:46:00;14.63;;;7.53;;
22334;SDS011;11335;43.848;25.958;2023-10-13T09:49:08;23.15;;;8.10;;
22334;SDS011;11335;43.848;25.958;2023-10-13T09:52:00;14.52;;;7.43;;
22334;SDS011;11335;43.848;25.958;2023-10-13T09:54:50;12.93;;;7.07;;
22334;SDS011;11335;43.848;25.958;2023-10-13T09:57:45;11.02;;;6.13;;
22334;SDS011;11335;43.848;25.958;2023-10-13T10:00:34;11.40;;;6.57;;
22334;SDS011;11335;43.848;25.958;2023-10-13T10:03:22;9.48;;;6.35;;
22334;SDS011;11335;43.848;25.958;2023-10-13T10:06:23;11.52;;;6.00;;
22334;SDS011;11335;43.848;25.958;2023-10-13T10:09:30;10.38;;;6.60;;
22334;SDS011;11335;43.848;25.958;2023-10-13T10:12:42;15.27;;;7.57;;
22334;SDS011;11335;43.848;25.958;2023-10-13T10:15:35;20.55;;;7.88;;
22334;SDS011;11335;43.848;25.958;2023-10-13T10:18:35;17.63;;;8.18;;
22334;SDS011;11335;43.848;25.958;2023-10-13T10:21:20;16.83;;;8.20;;
22334;SDS011;11335;43.848;25.958;2023-10-13T10:24:15;14.60;;;9.98;;
22334;SDS011;11335;43.848;25.958;2023-10-13T10:27:08;16.27;;;10.85;;
22334;SDS011;11335;43.848;25.958;2023-10-13T10:29:59;17.02;;;10.57;;
22334;SDS011;11335;43.848;25.958;2023-10-13T10:32:53;20.75;;;12.82;;
22334;SDS011;11335;43.848;25.958;2023-10-13T10:35:39;24.10;;;13.20;;
22334;SDS011;11335;43.848;25.958;2023-10-13T10:38:25;20.98;;;13.10;;
22334;SDS011;11335;43.848;25.958;2023-10-13T10:41:14;16.83;;;11.93;;
22334;SDS011;11335;43.848;25.958;2023-10-13T10:43:59;18.02;;;10.35;;
22334;SDS011;11335;43.848;25.958;2023-10-13T10:46:48;14.43;;;9.32;;
22334;SDS011;11335;43.848;25.958;2023-10-13T10:49:43;14.70;;;8.82;;
22334;SDS011;11335;43.848;25.958;2023-10-13T10:52:29;15.80;;;7.40;;
22334;SDS011;11335;43.848;25.958;2023-10-13T10:55:22;15.88;;;6.80;;
22334;SDS011;11335;43.848;25.958;2023-10-13T10:58:16;12.75;;;7.60;;
22334;SDS011;11335;43.848;25.958;2023-10-13T11:01:23;13.55;;;7.47;;
22334;SDS011;11335;43.848;25.958;2023-10-13T11:04:08;13.82;;;7.50;;
22334;SDS011;11335;43.848;25.958;2023-10-13T11:06:59;13.38;;;7.95;;
22334;SDS011;11335;43.848;25.958;2023-10-13T11:09:48;18.98;;;9.18;;
22334;SDS011;11335;43.848;25.958;2023-10-13T11:12:38;17.75;;;8.57;;
22334;SDS011;11335;43.848;25.958;2023-10-13T11:15:26;16.83;;;8.48;;
22334;SDS011;11335;43.848;25.958;2023-10-13T11:18:28;11.98;;;7.45;;
22334;SDS011;11335;43.848;25.958;2023-10-13T11:21:22;16.55;;;6.90;;
22334;SDS011;11335;43.848;25.958;2023-10-13T11:24:08;16.70;;;6.85;;
22334;SDS011;11335;43.848;25.958;2023-10-13T11:26:59;16.17;;;6.75;;
22334;SDS011;11335;43.848;25.958;2023-10-13T11:29:47;27.38;;;8.02;;
22334;SDS011;11335;43.848;25.958;2023-10-13T11:32:37;15.18;;;6.80;;
22334;SDS011;11335;43.848;25.958;2023-10-13T11:35:27;15.52;;;6.55;;
22334;SDS011;11335;43.848;25.958;2023-10-13T11:38:32;12.80;;;6.85;;
22334;SDS011;11335;43.848;25.958;2023-10-13T11:41:36;11.88;;;7.15;;
22334;SDS011;11335;43.848;25.958;2023-10-13T11:44:30;14.88;;;6.72;;
22334;SDS011;11335;43.848;25.958;2023-10-13T11:47:19;11.60;;;7.30;;
22334;SDS011;11335;43.848;25.958;2023-10-13T11:50:25;10.57;;;6.90;;
22334;SDS011;11335;43.848;25.958;2023-10-13T11:53:18;12.93;;;6.68;;
22334;SDS011;11335;43.848;25.958;2023-10-13T11:56:04;14.68;;;7.10;;
22334;SDS011;11335;43.848;25.958;2023-10-13T11:58:56;13.07;;;7.60;;
22334;SDS011;11335;43.848;25.958;2023-10-13T12:01:50;15.55;;;7.22;;
22334;SDS011;11335;43.848;25.958;2023-10-13T12:04:54;17.27;;;6.68;;
22334;SDS011;11335;43.848;25.958;2023-10-13T12:07:42;16.38;;;7.43;;
22334;SDS011;11335;43.848;25.958;2023-10-13T12:10:28;18.38;;;8.90;;
22334;SDS011;11335;43.848;25.958;2023-10-13T12:13:21;15.10;;;8.23;;
22334;SDS011;11335;43.848;25.958;2023-10-13T12:16:07;21.70;;;12.38;;
22334;SDS011;11335;43.848;25.958;2023-10-13T12:18:54;15.57;;;8.07;;
22334;SDS011;11335;43.848;25.958;2023-10-13T12:21:40;12.35;;;8.10;;
22334;SDS011;11335;43.848;25.958;2023-10-13T12:24:28;18.67;;;7.47;;
22334;SDS011;11335;43.848;25.958;2023-10-13T12:27:20;13.10;;;7.22;;
22334;SDS011;11335;43.848;25.958;2023-10-13T12:30:06;12.95;;;7.50;;
22334;SDS011;11335;43.848;25.958;2023-10-13T12:32:53;18.23;;;8.48;;
22334;SDS011;11335;43.848;25.958;2023-10-13T12:38:51;12.10;;;7.80;;
22334;SDS011;11335;43.848;25.958;2023-10-13T12:41:57;16.77;;;8.18;;
22334;SDS011;11335;43.848;25.958;2023-10-13T12:45:01;16.00;;;8.02;;
22334;SDS011;11335;43.848;25.958;2023-10-13T12:48:06;17.90;;;8.30;;
22334;SDS011;11335;43.848;25.958;2023-10-13T12:51:10;18.95;;;8.35;;
22334;SDS011;11335;43.848;25.958;2023-10-13T12:54:14;16.05;;;10.32;;
22334;SDS011;11335;43.848;25.958;2023-10-13T12:57:00;17.60;;;9.00;;
22334;SDS011;11335;43.848;25.958;2023-10-13T12:59:45;18.98;;;8.82;;
22334;SDS011;11335;43.848;25.958;2023-10-13T13:02:31;24.17;;;9.40;;
22334;SDS011;11335;43.848;25.958;2023-10-13T13:05:19;20.38;;;8.88;;
22334;SDS011;11335;43.848;25.958;2023-10-13T13:08:08;17.52;;;8.27;;
22334;SDS011;11335;43.848;25.958;2023-10-13T13:10:53;14.65;;;8.50;;
22334;SDS011;11335;43.848;25.958;2023-10-13T13:13:40;17.25;;;8.45;;
22334;SDS011;11335;43.848;25.958;2023-10-13T13:16:26;12.57;;;8.57;;
22334;SDS011;11335;43.848;25.958;2023-10-13T13:19:15;21.83;;;9.40;;
22334;SDS011;11335;43.848;25.958;2023-10-13T13:22:12;17.73;;;8.90;;
22334;SDS011;11335;43.848;25.958;2023-10-13T13:24:58;15.60;;;8.55;;
22334;SDS011;11335;43.848;25.958;2023-10-13T13:27:46;14.70;;;8.55;;
22334;SDS011;11335;43.848;25.958;2023-10-13T13:30:31;14.07;;;8.85;;
22334;SDS011;11335;43.848;25.958;2023-10-13T13:33:19;12.45;;;7.93;;
22334;SDS011;11335;43.848;25.958;2023-10-13T13:36:09;20.35;;;8.75;;
22334;SDS011;11335;43.848;25.958;2023-10-13T13:39:00;16.70;;;8.75;;
22334;SDS011;11335;43.848;25.958;2023-10-13T13:41:47;16.30;;;8.73;;
22334;SDS011;11335;43.848;25.958;2023-10-13T13:44:35;13.95;;;7.63;;
22334;SDS011;11335;43.848;25.958;2023-10-13T13:47:21;15.88;;;9.02;;
22334;SDS011;11335;43.848;25.958;2023-10-13T13:50:08;26.33;;;9.48;;
22334;SDS011;11335;43.848;25.958;2023-10-13T13:53:00;21.48;;;8.65;;
22334;SDS011;11335;43.848;25.958;2023-10-13T13:55:46;20.45;;;9.13;;
22334;SDS011;11335;43.848;25.958;2023-10-13T13:58:36;19.08;;;8.50;;
22334;SDS011;11335;43.848;25.958;2023-10-13T14:01:23;18.42;;;9.38;;
22334;SDS011;11335;43.848;25.958;2023-10-13T14:04:11;21.88;;;13.27;;
22334;SDS011;11335;43.848;25.958;2023-10-13T14:06:59;18.05;;;10.18;;
22334;SDS011;11335;43.848;25.958;2023-10-13T14:09:45;22.90;;;9.50;;
22334;SDS011;11335;43.848;25.958;2023-10-13T14:12:37;29.98;;;10.70;;
22334;SDS011;11335;43.848;25.958;2023-10-13T14:15:29;23.15;;;10.43;;
22334;SDS011;11335;43.848;25.958;2023-10-13T14:18:14;21.95;;;9.82;;
22334;SDS011;11335;43.848;25.958;2023-10-13T14:21:02;22.00;;;9.60;;
22334;SDS011;11335;43.848;25.958;2023-10-13T14:23:49;16.15;;;10.18;;
22334;SDS011;11335;43.848;25.958;2023-10-13T14:26:36;23.45;;;9.73;;
22334;SDS011;11335;43.848;25.958;2023-10-13T14:29:26;28.65;;;9.55;;
22334;SDS011;11335;43.848;25.958;2023-10-13T14:32:12;19.80;;;10.38;;
22334;SDS011;11335;43.848;25.958;2023-10-13T14:35:01;28.52;;;11.35;;
22334;SDS011;11335;43.848;25.958;2023-10-13T14:37:56;30.77;;;12.02;;
22334;SDS011;11335;43.848;25.958;2023-10-13T14:40:43;27.42;;;11.88;;
22334;SDS011;11335;43.848;25.958;2023-10-13T14:43:29;20.90;;;11.93;;
22334;SDS011;11335;43.848;25.958;2023-10-13T14:46:15;25.30;;;11.43;;
22334;SDS011;11335;43.848;25.958;2023-10-13T14:49:04;25.83;;;11.15;;
22334;SDS011;11335;43.848;25.958;2023-10-13T14:51:50;25.80;;;11.75;;
22334;SDS011;11335;43.848;25.958;2023-10-13T14:54:36;56.17;;;12.82;;
22334;SDS011;11335;43.848;25.958;2023-10-13T14:57:21;62.13;;;12.77;;
22334;SDS011;11335;43.848;25.958;2023-10-13T15:00:11;51.13;;;12.13;;
22334;SDS011;11335;43.848;25.958;2023-10-13T15:02:58;28.05;;;10.98;;
22334;SDS011;11335;43.848;25.958;2023-10-13T15:05:47;25.85;;;10.40;;
22334;SDS011;11335;43.848;25.958;2023-10-13T15:08:33;31.30;;;11.38;;
22334;SDS011;11335;43.848;25.958;2023-10-13T15:11:18;29.05;;;12.00;;
22334;SDS011;11335;43.848;25.958;2023-10-13T15:14:04;31.17;;;12.07;;
22334;SDS011;11335;43.848;25.958;2023-10-13T15:16:52;26.65;;;12.07;;
22334;SDS011;11335;43.848;25.958;2023-10-13T15:19:37;36.33;;;14.00;;
22334;SDS011;11335;43.848;25.958;2023-10-13T15:22:28;35.97;;;13.57;;
22334;SDS011;11335;43.848;25.958;2023-10-13T15:25:13;44.85;;;13.32;;
22334;SDS011;11335;43.848;25.958;2023-10-13T15:28:06;43.17;;;14.00;;
22334;SDS011;11335;43.848;25.958;2023-10-13T15:30:55;39.55;;;14.68;;
22334;SDS011;11335;43.848;25.958;2023-10-13T15:33:55;39.47;;;16.23;;
22334;SDS011;11335;43.848;25.958;2023-10-13T15:36:41;47.42;;;16.30;;
22334;SDS011;11335;43.848;25.958;2023-10-13T15:39:30;41.47;;;16.67;;
22334;SDS011;11335;43.848;25.958;2023-10-13T15:42:16;48.15;;;17.58;;
22334;SDS011;11335;43.848;25.958;2023-10-13T15:45:03;52.97;;;18.63;;
22334;SDS011;11335;43.848;25.958;2023-10-13T15:48:01;32.08;;;17.08;;
22334;SDS011;11335;43.848;25.958;2023-10-13T15:50:49;49.13;;;18.58;;
22334;SDS011;11335;43.848;25.958;2023-10-13T15:53:35;44.38;;;18.33;;
22334;SDS011;11335;43.848;25.958;2023-10-13T15:56:21;43.88;;;16.85;;
22334;SDS011;11335;43.848;25.958;2023-10-13T15:59:07;41.40;;;16.83;;
22334;SDS011;11335;43.848;25.958;2023-10-13T16:01:52;41.20;;;17.35;;
22334;SDS011;11335;43.848;25.958;2023-10-13T16:04:43;36.53;;;15.82;;
22334;SDS011;11335;43.848;25.958;2023-10-13T16:07:29;40.88;;;15.73;;
22334;SDS011;11335;43.848;25.958;2023-10-13T16:10:15;36.95;;;15.25;;
22334;SDS011;11335;43.848;25.958;2023-10-13T16:13:02;43.83;;;17.15;;
22334;SDS011;11335;43.848;25.958;2023-10-13T16:15:50;40.80;;;16.35;;
22334;SDS011;11335;43.848;25.958;2023-10-13T16:18:37;40.42;;;16.20;;
22334;SDS011;11335;43.848;25.958;2023-10-13T16:21:23;32.95;;;15.35;;
22334;SDS011;11335;43.848;25.958;2023-10-13T16:24:09;43.85;;;16.88;;
22334;SDS011;11335;43.848;25.958;2023-10-13T16:26:57;34.30;;;16.17;;
22334;SDS011;11335;43.848;25.958;2023-10-13T16:29:44;39.83;;;16.90;;
22334;SDS011;11335;43.848;25.958;2023-10-13T16:32:30;43.28;;;18.55;;
22334;SDS011;11335;43.848;25.958;2023-10-13T16:35:16;45.00;;;17.92;;
22334;SDS011;11335;43.848;25.958;2023-10-13T16:38:02;40.35;;;17.70;;
22334;SDS011;11335;43.848;25.958;2023-10-13T16:40:52;52.88;;;18.08;;
22334;SDS011;11335;43.848;25.958;2023-10-13T16:43:39;53.92;;;17.95;;
22334;SDS011;11335;43.848;25.958;2023-10-13T16:46:25;50.65;;;18.88;;
22334;SDS011;11335;43.848;25.958;2023-10-13T16:49:11;48.10;;;18.70;;
22334;SDS011;11335;43.848;25.958;2023-10-13T16:51:57;47.70;;;19.92;;